sensor_id;sensor_type;location;lat;lon;timestamp;pressure;altitude;pressure_sealevel;temperature;humidity
29941;BME280;16801;53.562;10.038;2023-01-28T00:03:04;102907.00;;;4.96;nan
29941;BME280;16801;53.562;10.038;2023-01-28T00:06:25;102906.19;;;4.93;nan
29941;BME280;16801;53.562;10.038;2023-01-28T00:09:45;102909.00;;;5.16;nan
29941;BME280;16801;53.562;10.038;2023-01-28T00:13:06;102910.84;;;5.14;nan
29941;BME280;16801;53.562;10.038;2023-01-28T00:16:27;102912.19;;;5.27;nan
29941;BME280;16801;53.562;10.038;2023-01-28T00:19:50;102911.44;;;5.23;nan
29941;BME280;16801;53.562;10.038;2023-01-28T00:23:10;102909.06;;;5.39;nan
29941;BME280;16801;53.562;10.038;2023-01-28T00:26:31;102909.66;;;5.22;nan
29941;BME280;16801;53.562;10.038;2023-01-28T00:29:52;102913.59;;;5.37;nan
29941;BME280;16801;53.562;10.038;2023-01-28T00:33:14;102920.97;;;5.55;nan
29941;BME280;16801;53.562;10.038;2023-01-28T00:36:36;102914.44;;;5.63;nan
29941;BME280;16801;53.562;10.038;2023-01-28T00:39:58;102904.31;;;5.47;nan
29941;BME280;16801;53.562;10.038;2023-01-28T00:43:19;102909.69;;;5.47;nan
29941;BME280;16801;53.562;10.038;2023-01-28T00:46:40;102911.00;;;5.35;nan
29941;BME280;16801;53.562;10.038;2023-01-28T00:50:02;102913.81;;;4.78;nan
29941;BME280;16801;53.562;10.038;2023-01-28T00:53:25;102912.78;;;4.26;nan
29941;BME280;16801;53.562;10.038;2023-01-28T00:56:46;102907.47;;;4.53;nan
29941;BME280;16801;53.562;10.038;2023-01-28T01:00:08;102909.97;;;4.30;nan
29941;BME280;16801;53.562;10.038;2023-01-28T01:03:29;102910.44;;;4.72;nan
29941;BME280;16801;53.562;10.038;2023-01-28T01:06:50;102909.19;;;4.83;nan
29941;BME280;16801;53.562;10.038;2023-01-28T01:10:15;102913.09;;;5.00;nan
29941;BME280;16801;53.562;10.038;2023-01-28T01:13:36;102908.66;;;4.99;nan
29941;BME280;16801;53.562;10.038;2023-01-28T01:16:57;102907.34;;;5.12;nan
29941;BME280;16801;53.562;10.038;2023-01-28T01:20:20;102912.81;;;5.09;nan
29941;BME280;16801;53.562;10.038;2023-01-28T01:23:41;102918.56;;;5.23;nan
29941;BME280;16801;53.562;10.038;2023-01-28T01:27:03;102912.06;;;5.04;nan
29941;BME280;16801;53.562;10.038;2023-01-28T01:30:25;102912.91;;;5.06;nan
29941;BME280;16801;53.562;10.038;2023-01-28T01:33:48;102902.00;;;5.12;nan
29941;BME280;16801;53.562;10.038;2023-01-28T01:37:09;102916.69;;;4.99;nan
29941;BME280;16801;53.562;10.038;2023-01-28T01:40:30;102912.13;;;5.02;nan
29941;BME280;16801;53.562;10.038;2023-01-28T01:43:56;102907.56;;;5.06;nan
29941;BME280;16801;53.562;10.038;2023-01-28T01:47:19;102903.19;;;5.03;nan
29941;BME280;16801;53.562;10.038;2023-01-28T01:50:50;102898.88;;;4.71;nan
29941;BME280;16801;53.562;10.038;2023-01-28T01:54:13;102908.16;;;4.88;nan
29941;BME280;16801;53.562;10.038;2023-01-28T01:57:35;102910.88;;;4.86;nan
29941;BME280;16801;53.562;10.038;2023-01-28T02:00:58;102902.72;;;4.91;nan
29941;BME280;16801;53.562;10.038;2023-01-28T02:04:22;102904.06;;;4.77;nan
29941;BME280;16801;53.562;10.038;2023-01-28T02:07:46;102899.75;;;4.73;nan
29941;BME280;16801;53.562;10.038;2023-01-28T02:11:11;102902.16;;;4.81;nan
29941;BME280;16801;53.562;10.038;2023-01-28T02:14:37;102902.63;;;4.94;nan
29941;BME280;16801;53.562;10.038;2023-01-28T02:18:03;102901.88;;;4.90;nan
29941;BME280;16801;53.562;10.038;2023-01-28T02:21:35;102900.19;;;4.86;nan
29941;BME280;16801;53.562;10.038;2023-01-28T02:29:10;102899.69;;;5.01;nan
29941;BME280;16801;53.562;10.038;2023-01-28T02:32:39;102898.88;;;4.99;nan
29941;BME280;16801;53.562;10.038;2023-01-28T02:36:08;102898.53;;;4.82;nan
29941;BME280;16801;53.562;10.038;2023-01-28T02:39:34;102895.50;;;4.93;nan
29941;BME280;16801;53.562;10.038;2023-01-28T02:42:56;102887.75;;;5.11;nan
29941;BME280;16801;53.562;10.038;2023-01-28T02:46:32;102891.31;;;5.12;nan
29941;BME280;16801;53.562;10.038;2023-01-28T02:50:13;102892.22;;;4.84;nan
29941;BME280;16801;53.562;10.038;2023-01-28T02:53:40;102903.38;;;4.97;nan
29941;BME280;16801;53.562;10.038;2023-01-28T02:57:10;102886.84;;;5.12;nan
29941;BME280;16801;53.562;10.038;2023-01-28T03:00:43;102887.16;;;5.03;nan
29941;BME280;16801;53.562;10.038;2023-01-28T03:04:09;102900.19;;;4.86;nan
29941;BME280;16801;53.562;10.038;2023-01-28T03:07:36;102905.19;;;4.97;nan
29941;BME280;16801;53.562;10.038;2023-01-28T03:10:58;102897.69;;;4.81;nan
29941;BME280;16801;53.562;10.038;2023-01-28T03:14:37;102889.47;;;5.14;nan
29941;BME280;16801;53.562;10.038;2023-01-28T03:18:19;102888.41;;;5.18;nan
29941;BME280;16801;53.562;10.038;2023-01-28T03:22:03;102883.22;;;5.13;nan
29941;BME280;16801;53.562;10.038;2023-01-28T03:25:44;102885.13;;;5.10;nan
29941;BME280;16801;53.562;10.038;2023-01-28T03:29:25;102884.53;;;5.02;nan
29941;BME280;16801;53.562;10.038;2023-01-28T03:33:09;102883.13;;;5.16;nan
29941;BME280;16801;53.562;10.038;2023-01-28T03:36:49;102883.28;;;5.12;nan
29941;BME280;16801;53.562;10.038;2023-01-28T03:40:36;102895.91;;;5.08;nan
29941;BME280;16801;53.562;10.038;2023-01-28T03:44:08;102894.59;;;5.20;nan
29941;BME280;16801;53.562;10.038;2023-01-28T03:47:46;102893.69;;;5.21;nan
29941;BME280;16801;53.562;10.038;2023-01-28T03:51:09;102892.91;;;5.17;nan
29941;BME280;16801;53.562;10.038;2023-01-28T03:54:30;102891.88;;;5.21;nan
29941;BME280;16801;53.562;10.038;2023-01-28T03:57:52;102893.50;;;4.99;nan
29941;BME280;16801;53.562;10.038;2023-01-28T04:01:13;102893.44;;;5.02;nan
29941;BME280;16801;53.562;10.038;2023-01-28T04:04:36;102889.41;;;4.61;nan
29941;BME280;16801;53.562;10.038;2023-01-28T04:07:57;102892.81;;;4.39;nan
29941;BME280;16801;53.562;10.038;2023-01-28T04:11:48;102891.19;;;4.62;nan
29941;BME280;16801;53.562;10.038;2023-01-28T04:15:17;102895.38;;;4.71;nan
29941;BME280;16801;53.562;10.038;2023-01-28T04:18:40;102896.28;;;4.70;nan
29941;BME280;16801;53.562;10.038;2023-01-28T04:22:08;102887.63;;;4.62;nan
29941;BME280;16801;53.562;10.038;2023-01-28T04:25:30;102881.19;;;4.69;nan
29941;BME280;16801;53.562;10.038;2023-01-28T04:28:51;102889.75;;;4.78;nan
29941;BME280;16801;53.562;10.038;2023-01-28T04:32:14;102876.69;;;4.69;nan
29941;BME280;16801;53.562;10.038;2023-01-28T04:35:53;102878.50;;;4.69;nan
29941;BME280;16801;53.562;10.038;2023-01-28T04:39:47;102883.53;;;4.78;nan
29941;BME280;16801;53.562;10.038;2023-01-28T04:43:30;102885.44;;;4.74;nan
29941;BME280;16801;53.562;10.038;2023-01-28T04:47:09;102882.00;;;4.71;nan
29941;BME280;16801;53.562;10.038;2023-01-28T04:50:56;102887.19;;;4.75;nan
29941;BME280;16801;53.562;10.038;2023-01-28T04:54:46;102896.09;;;5.02;nan
29941;BME280;16801;53.562;10.038;2023-01-28T04:58:07;102887.69;;;4.88;nan
29941;BME280;16801;53.562;10.038;2023-01-28T05:01:29;102903.03;;;4.81;nan
29941;BME280;16801;53.562;10.038;2023-01-28T05:04:50;102901.56;;;4.71;nan
29941;BME280;16801;53.562;10.038;2023-01-28T05:08:41;102886.88;;;4.84;nan
29941;BME280;16801;53.562;10.038;2023-01-28T05:12:06;102889.63;;;4.83;nan
29941;BME280;16801;53.562;10.038;2023-01-28T05:15:30;102877.56;;;4.70;nan
29941;BME280;16801;53.562;10.038;2023-01-28T05:18:51;102881.31;;;4.64;nan
29941;BME280;16801;53.562;10.038;2023-01-28T05:22:13;102884.13;;;3.72;nan
29941;BME280;16801;53.562;10.038;2023-01-28T05:25:38;102882.81;;;3.56;nan
29941;BME280;16801;53.562;10.038;2023-01-28T05:28:59;102873.53;;;3.69;nan
29941;BME280;16801;53.562;10.038;2023-01-28T05:32:20;102864.28;;;3.82;nan
29941;BME280;16801;53.562;10.038;2023-01-28T05:35:42;102864.03;;;3.91;nan
29941;BME280;16801;53.562;10.038;2023-01-28T05:39:03;102857.53;;;3.71;nan
29941;BME280;16801;53.562;10.038;2023-01-28T05:42:26;102861.78;;;3.76;nan
29941;BME280;16801;53.562;10.038;2023-01-28T05:46:01;102862.72;;;3.75;nan
29941;BME280;16801;53.562;10.038;2023-01-28T05:49:44;102861.63;;;3.82;nan
29941;BME280;16801;53.562;10.038;2023-01-28T05:53:24;102867.91;;;3.80;nan
29941;BME280;16801;53.562;10.038;2023-01-28T05:56:45;102860.53;;;3.89;nan
29941;BME280;16801;53.562;10.038;2023-01-28T06:00:08;102856.78;;;3.95;nan
29941;BME280;16801;53.562;10.038;2023-01-28T06:03:35;102854.31;;;3.89;nan
29941;BME280;16801;53.562;10.038;2023-01-28T06:06:56;102865.16;;;3.83;nan
29941;BME280;16801;53.562;10.038;2023-01-28T06:10:18;102860.00;;;3.77;nan
29941;BME280;16801;53.562;10.038;2023-01-28T06:13:40;102866.19;;;3.79;nan
29941;BME280;16801;53.562;10.038;2023-01-28T06:17:26;102866.19;;;3.47;nan
29941;BME280;16801;53.562;10.038;2023-01-28T06:21:07;102864.34;;;3.49;nan
29941;BME280;16801;53.562;10.038;2023-01-28T06:24:28;102847.88;;;3.35;nan
29941;BME280;16801;53.562;10.038;2023-01-28T06:27:49;102859.59;;;3.28;nan
29941;BME280;16801;53.562;10.038;2023-01-28T06:31:10;102854.41;;;2.89;nan
29941;BME280;16801;53.562;10.038;2023-01-28T06:34:32;102839.31;;;2.55;nan
29941;BME280;16801;53.562;10.038;2023-01-28T06:37:53;102854.09;;;3.01;nan
29941;BME280;16801;53.562;10.038;2023-01-28T06:41:13;102849.75;;;3.31;nan
29941;BME280;16801;53.562;10.038;2023-01-28T06:44:34;102836.97;;;3.11;nan
29941;BME280;16801;53.562;10.038;2023-01-28T06:47:55;102843.03;;;2.83;nan
29941;BME280;16801;53.562;10.038;2023-01-28T06:51:17;102853.59;;;2.87;nan
29941;BME280;16801;53.562;10.038;2023-01-28T06:54:38;102853.59;;;3.21;nan
29941;BME280;16801;53.562;10.038;2023-01-28T06:57:59;102867.91;;;3.17;nan
29941;BME280;16801;53.562;10.038;2023-01-28T07:01:20;102869.31;;;3.32;nan
29941;BME280;16801;53.562;10.038;2023-01-28T07:04:41;102881.53;;;3.05;nan
29941;BME280;16801;53.562;10.038;2023-01-28T07:08:03;102892.41;;;3.31;nan
29941;BME280;16801;53.562;10.038;2023-01-28T07:11:24;102912.63;;;3.38;nan
29941;BME280;16801;53.562;10.038;2023-01-28T07:14:45;102917.66;;;3.50;nan
29941;BME280;16801;53.562;10.038;2023-01-28T07:18:06;102925.50;;;3.55;nan
29941;BME280;16801;53.562;10.038;2023-01-28T07:21:27;102930.00;;;3.54;nan
29941;BME280;16801;53.562;10.038;2023-01-28T07:24:49;102927.34;;;3.53;nan
29941;BME280;16801;53.562;10.038;2023-01-28T07:28:10;102938.72;;;3.59;nan
29941;BME280;16801;53.562;10.038;2023-01-28T07:31:31;102942.34;;;3.57;nan
29941;BME280;16801;53.562;10.038;2023-01-28T07:34:52;102932.09;;;3.42;nan
29941;BME280;16801;53.562;10.038;2023-01-28T07:38:13;102927.63;;;3.42;nan
29941;BME280;16801;53.562;10.038;2023-01-28T07:41:36;102926.78;;;3.42;nan
29941;BME280;16801;53.562;10.038;2023-01-28T07:45:03;102940.00;;;3.45;nan
29941;BME280;16801;53.562;10.038;2023-01-28T07:48:25;102950.81;;;3.39;nan
29941;BME280;16801;53.562;10.038;2023-01-28T07:51:45;102942.09;;;3.32;nan
29941;BME280;16801;53.562;10.038;2023-01-28T07:55:09;102937.59;;;3.36;nan
29941;BME280;16801;53.562;10.038;2023-01-28T07:58:32;102931.53;;;3.29;nan
29941;BME280;16801;53.562;10.038;2023-01-28T08:01:54;102943.88;;;3.33;nan
29941;BME280;16801;53.562;10.038;2023-01-28T08:05:16;102952.72;;;3.35;nan
29941;BME280;16801;53.562;10.038;2023-01-28T08:08:37;102959.72;;;3.39;nan
29941;BME280;16801;53.562;10.038;2023-01-28T08:11:58;102952.34;;;3.15;nan
29941;BME280;16801;53.562;10.038;2023-01-28T08:15:21;102959.50;;;3.11;nan
29941;BME280;16801;53.562;10.038;2023-01-28T08:18:43;102956.59;;;3.22;nan
29941;BME280;16801;53.562;10.038;2023-01-28T08:22:04;102953.88;;;3.23;nan
29941;BME280;16801;53.562;10.038;2023-01-28T08:25:25;102952.88;;;3.29;nan
29941;BME280;16801;53.562;10.038;2023-01-28T08:28:45;102954.38;;;3.39;nan
29941;BME280;16801;53.562;10.038;2023-01-28T08:32:08;102949.50;;;3.55;nan
29941;BME280;16801;53.562;10.038;2023-01-28T08:35:28;102961.25;;;3.48;nan
29941;BME280;16801;53.562;10.038;2023-01-28T08:38:51;102967.38;;;3.51;nan
29941;BME280;16801;53.562;10.038;2023-01-28T08:42:13;102946.69;;;3.93;nan
29941;BME280;16801;53.562;10.038;2023-01-28T08:45:34;102937.50;;;4.34;nan
29941;BME280;16801;53.562;10.038;2023-01-28T08:48:56;102954.84;;;5.04;nan
29941;BME280;16801;53.562;10.038;2023-01-28T08:52:17;102958.72;;;4.66;nan
29941;BME280;16801;53.562;10.038;2023-01-28T08:55:38;102966.84;;;4.63;nan
29941;BME280;16801;53.562;10.038;2023-01-28T08:59:02;102969.22;;;4.44;nan
29941;BME280;16801;53.562;10.038;2023-01-28T09:02:23;102988.53;;;4.23;nan
29941;BME280;16801;53.562;10.038;2023-01-28T09:05:45;102987.91;;;4.44;nan
29941;BME280;16801;53.562;10.038;2023-01-28T09:09:08;102981.50;;;7.44;nan
29941;BME280;16801;53.562;10.038;2023-01-28T09:12:28;102962.56;;;11.64;nan
29941;BME280;16801;53.562;10.038;2023-01-28T09:15:49;102973.38;;;13.33;nan
29941;BME280;16801;53.562;10.038;2023-01-28T09:19:10;102986.78;;;14.13;nan
29941;BME280;16801;53.562;10.038;2023-01-28T09:22:33;102989.28;;;15.15;nan
29941;BME280;16801;53.562;10.038;2023-01-28T09:25:58;102986.81;;;15.36;nan
29941;BME280;16801;53.562;10.038;2023-01-28T09:29:19;102988.63;;;16.17;nan
29941;BME280;16801;53.562;10.038;2023-01-28T09:32:40;102983.53;;;16.02;nan
29941;BME280;16801;53.562;10.038;2023-01-28T09:36:04;102998.72;;;15.93;nan
29941;BME280;16801;53.562;10.038;2023-01-28T09:39:26;102989.63;;;16.27;nan
29941;BME280;16801;53.562;10.038;2023-01-28T09:42:58;102990.31;;;17.40;nan
29941;BME280;16801;53.562;10.038;2023-01-28T09:46:28;102998.13;;;17.02;nan
29941;BME280;16801;53.562;10.038;2023-01-28T09:49:52;102994.41;;;13.69;nan
29941;BME280;16801;53.562;10.038;2023-01-28T09:53:17;102995.19;;;13.03;nan
29941;BME280;16801;53.562;10.038;2023-01-28T09:56:42;102981.69;;;12.75;nan
29941;BME280;16801;53.562;10.038;2023-01-28T10:00:12;102968.59;;;15.01;nan
29941;BME280;16801;53.562;10.038;2023-01-28T10:03:47;102965.94;;;16.51;nan
29941;BME280;16801;53.562;10.038;2023-01-28T10:07:20;102976.25;;;11.90;nan
29941;BME280;16801;53.562;10.038;2023-01-28T10:10:48;102954.66;;;12.19;nan
29941;BME280;16801;53.562;10.038;2023-01-28T10:14:16;102979.88;;;8.21;nan
29941;BME280;16801;53.562;10.038;2023-01-28T10:17:44;102961.69;;;9.37;nan
29941;BME280;16801;53.562;10.038;2023-01-28T10:21:14;102965.59;;;8.77;nan
29941;BME280;16801;53.562;10.038;2023-01-28T10:24:40;102949.22;;;11.15;nan
29941;BME280;16801;53.562;10.038;2023-01-28T10:28:12;102956.16;;;11.35;nan
29941;BME280;16801;53.562;10.038;2023-01-28T10:31:43;102960.19;;;10.00;nan
29941;BME280;16801;53.562;10.038;2023-01-28T10:35:05;102952.22;;;8.95;nan
29941;BME280;16801;53.562;10.038;2023-01-28T10:38:27;102946.78;;;7.40;nan
29941;BME280;16801;53.562;10.038;2023-01-28T10:41:49;102939.22;;;9.90;nan
29941;BME280;16801;53.562;10.038;2023-01-28T10:45:16;102952.69;;;9.38;nan
29941;BME280;16801;53.562;10.038;2023-01-28T10:48:43;102932.66;;;7.56;nan
29941;BME280;16801;53.562;10.038;2023-01-28T10:52:10;102929.31;;;6.43;nan
29941;BME280;16801;53.562;10.038;2023-01-28T10:55:47;102922.44;;;5.90;nan
29941;BME280;16801;53.562;10.038;2023-01-28T10:59:19;102911.13;;;4.78;nan
29941;BME280;16801;53.562;10.038;2023-01-28T11:02:40;102896.97;;;5.03;nan
29941;BME280;16801;53.562;10.038;2023-01-28T11:06:03;102891.22;;;5.64;nan
29941;BME280;16801;53.562;10.038;2023-01-28T11:09:26;102890.44;;;7.60;nan
29941;BME280;16801;53.562;10.038;2023-01-28T11:12:54;102889.97;;;8.29;nan
29941;BME280;16801;53.562;10.038;2023-01-28T11:16:16;102899.56;;;6.94;nan
29941;BME280;16801;53.562;10.038;2023-01-28T11:19:38;102875.34;;;7.17;nan
29941;BME280;16801;53.562;10.038;2023-01-28T11:23:00;102860.22;;;10.37;nan
29941;BME280;16801;53.562;10.038;2023-01-28T11:26:23;102858.88;;;11.94;nan
29941;BME280;16801;53.562;10.038;2023-01-28T11:29:45;102842.63;;;11.66;nan
29941;BME280;16801;53.562;10.038;2023-01-28T11:33:15;102834.50;;;9.99;nan
29941;BME280;16801;53.562;10.038;2023-01-28T11:36:37;102822.78;;;13.04;nan
29941;BME280;16801;53.562;10.038;2023-01-28T11:40:15;102832.72;;;12.50;nan
29941;BME280;16801;53.562;10.038;2023-01-28T11:43:39;102845.94;;;9.87;nan
29941;BME280;16801;53.562;10.038;2023-01-28T11:47:15;102850.22;;;9.58;nan
29941;BME280;16801;53.562;10.038;2023-01-28T11:50:45;102833.06;;;9.77;nan
29941;BME280;16801;53.562;10.038;2023-01-28T11:54:20;102825.97;;;8.37;nan
29941;BME280;16801;53.562;10.038;2023-01-28T11:57:50;102825.91;;;8.74;nan
29941;BME280;16801;53.562;10.038;2023-01-28T12:01:21;102842.63;;;6.67;nan
29941;BME280;16801;53.562;10.038;2023-01-28T12:04:59;102844.19;;;6.06;nan
29941;BME280;16801;53.562;10.038;2023-01-28T12:08:28;102846.66;;;6.77;nan
29941;BME280;16801;53.562;10.038;2023-01-28T12:12:03;102826.47;;;11.07;nan
29941;BME280;16801;53.562;10.038;2023-01-28T12:15:49;102823.34;;;8.54;nan
29941;BME280;16801;53.562;10.038;2023-01-28T12:19:28;102824.56;;;13.17;nan
29941;BME280;16801;53.562;10.038;2023-01-28T12:23:02;102820.47;;;8.40;nan
29941;BME280;16801;53.562;10.038;2023-01-28T12:26:34;102820.28;;;8.79;nan
29941;BME280;16801;53.562;10.038;2023-01-28T12:30:05;102817.41;;;10.63;nan
29941;BME280;16801;53.562;10.038;2023-01-28T12:33:59;102804.47;;;9.41;nan
29941;BME280;16801;53.562;10.038;2023-01-28T12:37:29;102816.75;;;9.47;nan
29941;BME280;16801;53.562;10.038;2023-01-28T12:41:03;102807.16;;;8.19;nan
29941;BME280;16801;53.562;10.038;2023-01-28T12:44:30;102795.75;;;11.23;nan
29941;BME280;16801;53.562;10.038;2023-01-28T12:47:53;102793.13;;;11.94;nan
29941;BME280;16801;53.562;10.038;2023-01-28T12:51:21;102771.47;;;12.22;nan
29941;BME280;16801;53.562;10.038;2023-01-28T12:54:52;102773.47;;;8.83;nan
29941;BME280;16801;53.562;10.038;2023-01-28T12:58:20;102779.25;;;6.86;nan
29941;BME280;16801;53.562;10.038;2023-01-28T13:01:46;102785.44;;;6.88;nan
29941;BME280;16801;53.562;10.038;2023-01-28T13:05:13;102775.38;;;7.13;nan
29941;BME280;16801;53.562;10.038;2023-01-28T13:08:37;102777.00;;;6.56;nan
29941;BME280;16801;53.562;10.038;2023-01-28T13:11:59;102777.41;;;6.88;nan
29941;BME280;16801;53.562;10.038;2023-01-28T13:15:22;102778.31;;;6.87;nan
29941;BME280;16801;53.562;10.038;2023-01-28T13:18:45;102767.59;;;7.85;nan
29941;BME280;16801;53.562;10.038;2023-01-28T13:22:24;102762.28;;;6.66;nan
29941;BME280;16801;53.562;10.038;2023-01-28T13:25:50;102761.03;;;5.41;nan
29941;BME280;16801;53.562;10.038;2023-01-28T13:29:32;102750.44;;;7.50;nan
29941;BME280;16801;53.562;10.038;2023-01-28T13:32:56;102763.94;;;6.68;nan
29941;BME280;16801;53.562;10.038;2023-01-28T13:36:23;102775.38;;;6.52;nan
29941;BME280;16801;53.562;10.038;2023-01-28T13:39:47;102778.19;;;7.10;nan
29941;BME280;16801;53.562;10.038;2023-01-28T13:43:34;102774.59;;;8.96;nan
29941;BME280;16801;53.562;10.038;2023-01-28T13:46:58;102778.00;;;9.49;nan
29941;BME280;16801;53.562;10.038;2023-01-28T13:50:21;102785.06;;;8.49;nan
29941;BME280;16801;53.562;10.038;2023-01-28T13:53:46;102803.22;;;7.11;nan
29941;BME280;16801;53.562;10.038;2023-01-28T13:57:26;102814.25;;;6.62;nan
29941;BME280;16801;53.562;10.038;2023-01-28T14:01:13;102806.00;;;7.08;nan
29941;BME280;16801;53.562;10.038;2023-01-28T14:04:52;102811.53;;;5.97;nan
29941;BME280;16801;53.562;10.038;2023-01-28T14:08:30;102805.88;;;5.81;nan
29941;BME280;16801;53.562;10.038;2023-01-28T14:12:20;102803.50;;;5.49;nan
29941;BME280;16801;53.562;10.038;2023-01-28T14:15:54;102798.38;;;5.91;nan
29941;BME280;16801;53.562;10.038;2023-01-28T14:19:21;102786.72;;;6.36;nan
29941;BME280;16801;53.562;10.038;2023-01-28T14:22:45;102790.16;;;5.72;nan
29941;BME280;16801;53.562;10.038;2023-01-28T14:26:25;102779.41;;;5.74;nan
29941;BME280;16801;53.562;10.038;2023-01-28T14:30:02;102789.69;;;5.86;nan
29941;BME280;16801;53.562;10.038;2023-01-28T14:33:24;102775.72;;;5.30;nan
29941;BME280;16801;53.562;10.038;2023-01-28T14:36:47;102784.81;;;4.75;nan
29941;BME280;16801;53.562;10.038;2023-01-28T14:40:12;102775.47;;;4.88;nan
29941;BME280;16801;53.562;10.038;2023-01-28T14:43:35;102773.25;;;4.99;nan
29941;BME280;16801;53.562;10.038;2023-01-28T14:51:06;102791.53;;;5.36;nan
29941;BME280;16801;53.562;10.038;2023-01-28T14:54:39;102795.19;;;5.33;nan
29941;BME280;16801;53.562;10.038;2023-01-28T14:58:05;102809.31;;;5.37;nan
29941;BME280;16801;53.562;10.038;2023-01-28T15:01:29;102813.97;;;4.81;nan
29941;BME280;16801;53.562;10.038;2023-01-28T15:04:51;102822.97;;;5.05;nan
29941;BME280;16801;53.562;10.038;2023-01-28T15:08:18;102820.69;;;4.93;nan
29941;BME280;16801;53.562;10.038;2023-01-28T15:11:42;102824.53;;;5.10;nan
29941;BME280;16801;53.562;10.038;2023-01-28T15:15:09;102827.19;;;5.59;nan
29941;BME280;16801;53.562;10.038;2023-01-28T15:18:33;102815.28;;;5.68;nan
29941;BME280;16801;53.562;10.038;2023-01-28T15:21:56;102808.63;;;5.32;nan
29941;BME280;16801;53.562;10.038;2023-01-28T15:25:19;102805.34;;;5.48;nan
29941;BME280;16801;53.562;10.038;2023-01-28T15:28:43;102795.88;;;4.89;nan
29941;BME280;16801;53.562;10.038;2023-01-28T15:32:04;102779.78;;;4.91;nan
29941;BME280;16801;53.562;10.038;2023-01-28T15:35:26;102786.50;;;4.51;nan
29941;BME280;16801;53.562;10.038;2023-01-28T15:38:47;102795.00;;;4.88;nan
29941;BME280;16801;53.562;10.038;2023-01-28T15:42:18;102794.09;;;4.90;nan
29941;BME280;16801;53.562;10.038;2023-01-28T15:45:45;102791.72;;;5.07;nan
29941;BME280;16801;53.562;10.038;2023-01-28T15:49:14;102796.66;;;4.93;nan
29941;BME280;16801;53.562;10.038;2023-01-28T15:52:38;102790.09;;;5.03;nan
29941;BME280;16801;53.562;10.038;2023-01-28T15:56:07;102782.19;;;5.47;nan
29941;BME280;16801;53.562;10.038;2023-01-28T15:59:29;102776.41;;;5.35;nan
29941;BME280;16801;53.562;10.038;2023-01-28T16:02:53;102771.16;;;4.58;nan
29941;BME280;16801;53.562;10.038;2023-01-28T16:06:17;102779.97;;;4.34;nan
29941;BME280;16801;53.562;10.038;2023-01-28T16:09:40;102754.91;;;4.64;nan
29941;BME280;16801;53.562;10.038;2023-01-28T16:13:04;102770.97;;;4.36;nan
29941;BME280;16801;53.562;10.038;2023-01-28T16:16:28;102780.53;;;4.96;nan
29941;BME280;16801;53.562;10.038;2023-01-28T16:19:57;102787.66;;;4.43;nan
29941;BME280;16801;53.562;10.038;2023-01-28T16:23:22;102784.31;;;4.36;nan
29941;BME280;16801;53.562;10.038;2023-01-28T16:26:55;102770.03;;;4.65;nan
29941;BME280;16801;53.562;10.038;2023-01-28T16:30:17;102788.00;;;4.34;nan
29941;BME280;16801;53.562;10.038;2023-01-28T16:33:39;102783.16;;;4.45;nan
29941;BME280;16801;53.562;10.038;2023-01-28T16:37:01;102788.59;;;4.42;nan
29941;BME280;16801;53.562;10.038;2023-01-28T16:40:23;102793.97;;;4.40;nan
29941;BME280;16801;53.562;10.038;2023-01-28T16:43:44;102791.06;;;4.74;nan
29941;BME280;16801;53.562;10.038;2023-01-28T16:47:05;102796.00;;;4.34;nan
29941;BME280;16801;53.562;10.038;2023-01-28T16:50:26;102789.56;;;4.39;nan
29941;BME280;16801;53.562;10.038;2023-01-28T16:53:49;102766.44;;;4.12;nan
29941;BME280;16801;53.562;10.038;2023-01-28T16:57:13;102773.53;;;4.65;nan
29941;BME280;16801;53.562;10.038;2023-01-28T17:00:34;102783.09;;;4.72;nan
29941;BME280;16801;53.562;10.038;2023-01-28T17:03:55;102798.09;;;4.76;nan
29941;BME280;16801;53.562;10.038;2023-01-28T17:07:16;102797.06;;;4.80;nan
29941;BME280;16801;53.562;10.038;2023-01-28T17:10:39;102788.50;;;4.71;nan
29941;BME280;16801;53.562;10.038;2023-01-28T17:14:00;102778.78;;;4.42;nan
29941;BME280;16801;53.562;10.038;2023-01-28T17:17:21;102793.00;;;4.43;nan
29941;BME280;16801;53.562;10.038;2023-01-28T17:20:42;102779.91;;;4.07;nan
29941;BME280;16801;53.562;10.038;2023-01-28T17:24:03;102778.94;;;4.38;nan
29941;BME280;16801;53.562;10.038;2023-01-28T17:27:26;102780.41;;;4.20;nan
29941;BME280;16801;53.562;10.038;2023-01-28T17:30:47;102781.16;;;4.25;nan
29941;BME280;16801;53.562;10.038;2023-01-28T17:34:08;102790.41;;;4.14;nan
29941;BME280;16801;53.562;10.038;2023-01-28T17:37:30;102785.53;;;4.26;nan
29941;BME280;16801;53.562;10.038;2023-01-28T17:40:51;102786.03;;;4.39;nan
29941;BME280;16801;53.562;10.038;2023-01-28T17:44:13;102786.03;;;4.39;nan
29941;BME280;16801;53.562;10.038;2023-01-28T17:47:34;102792.84;;;4.21;nan
29941;BME280;16801;53.562;10.038;2023-01-28T17:50:57;102792.91;;;4.46;nan
29941;BME280;16801;53.562;10.038;2023-01-28T17:54:18;102779.69;;;3.86;nan
29941;BME280;16801;53.562;10.038;2023-01-28T17:57:42;102793.38;;;4.04;nan
29941;BME280;16801;53.562;10.038;2023-01-28T18:01:08;102790.06;;;4.24;nan
29941;BME280;16801;53.562;10.038;2023-01-28T18:04:29;102779.78;;;4.12;nan
29941;BME280;16801;53.562;10.038;2023-01-28T18:07:51;102773.63;;;4.38;nan
29941;BME280;16801;53.562;10.038;2023-01-28T18:11:14;102776.50;;;5.09;nan
29941;BME280;16801;53.562;10.038;2023-01-28T18:14:37;102792.91;;;4.72;nan
29941;BME280;16801;53.562;10.038;2023-01-28T18:18:00;102793.16;;;4.91;nan
29941;BME280;16801;53.562;10.038;2023-01-28T18:21:29;102806.34;;;4.44;nan
29941;BME280;16801;53.562;10.038;2023-01-28T18:24:51;102816.19;;;4.15;nan
29941;BME280;16801;53.562;10.038;2023-01-28T18:28:12;102817.44;;;4.58;nan
29941;BME280;16801;53.562;10.038;2023-01-28T18:31:33;102810.72;;;4.45;nan
29941;BME280;16801;53.562;10.038;2023-01-28T18:34:55;102804.63;;;4.68;nan